This is the latest recevied weather packets stored in our database for station/object K4FB. If no packets are shown the sender has not sent any weather packets the latest 10 day(s).
| Time | Temp. | Humidity | Pressure | Rain* | Wind** | Luminosity | Snow |
|---|---|---|---|---|---|---|---|
| 1777688406 | 23.33° C | 80% | 1012.6 hPa | 0 mm | - | - | - |
| 1777687208 | 23.89° C | 77% | 1012.6 hPa | 0 mm | - | - | - |
| 1777686305 | 24.44° C | 75% | 1012.4 hPa | 0 mm | - | - | - |
| 1777683304 | 26.11° C | 65% | 1011.9 hPa | 0 mm | - | - | - |
| 1777680303 | 27.78° C | 57% | 1011.3 hPa | 0 mm | - | - | - |
| 1777678216 | 28.89° C | 54% | 1010.8 hPa | 0 mm | - | - | - |
| 1777676703 | 30.56° C | 49% | 1010.6 hPa | 0 mm | - | - | - |
| 1777674906 | 32.78° C | 42% | 1010.3 hPa | 0 mm | - | - | - |
| 1777672808 | 33.89° C | 39% | 1010.1 hPa | 0 mm | - | - | - |
| 1777671307 | 33.33° C | 41% | 1010.2 hPa | 0 mm | - | - | - |
| 1777670408 | 32.78° C | 44% | 1010.2 hPa | 0 mm | - | - | - |
| 1777667703 | 34.44° C | 40% | 1010.3 hPa | 0 mm | - | - | - |
| 1777666804 | 35° C | 41% | 1010.5 hPa | 0 mm | - | - | - |
| 1777666520 | 35° C | 41% | 1010.6 hPa | 0 mm | - | - | - |
| 1777664715 | 35° C | 40% | 1011.1 hPa | 0 mm | - | - | - |
| 1777662604 | 35° C | 44% | 1011.8 hPa | 0 mm | - | - | - |
| 1777661123 | 34.44° C | 42% | 1012.1 hPa | 0 mm | - | - | - |
| 1777660809 | 34.44° C | 41% | 1012.1 hPa | 0 mm | - | - | - |
| 1777660504 | 33.89° C | 47% | 1012.1 hPa | 0 mm | - | - | - |
| 1777656306 | 33.89° C | 46% | 1012.9 hPa | 0 mm | - | - | - |
| 1777653310 | 33.33° C | 49% | 1013.2 hPa | 0 mm | - | - | - |
| 1777653017 | 33.33° C | 50% | 1013.2 hPa | 0 mm | - | - | - |
| 1777652707 | 32.78° C | 51% | 1013.3 hPa | 0 mm | - | - | - |
| 1777651515 | 31.67° C | 53% | 1013.7 hPa | 0 mm | - | - | - |
| 1777646406 | 28.89° C | 68% | 1013.7 hPa | 0 mm | - | - | - |
* Rain latest hour (hover to see other rain measurements)
** Current wind speed in m/s (hover to see current wind gust speed)